createdAt,value
2022-12-27T00:02:06.119Z,100.00
2022-12-27T00:04:32.764Z,100.00
2022-12-27T00:06:59.408Z,100.00
2022-12-27T00:09:26.058Z,100.00
2022-12-27T00:11:58.071Z,100.00
2022-12-27T00:14:26.375Z,100.00
2022-12-27T00:16:53.044Z,100.00
2022-12-27T00:19:19.845Z,100.00
2022-12-27T00:21:46.616Z,100.00
2022-12-27T00:24:13.419Z,100.00
2022-12-27T00:26:40.993Z,100.00
2022-12-27T00:29:08.054Z,100.00
2022-12-27T00:31:35.293Z,100.00
2022-12-27T00:34:05.719Z,100.00
2022-12-27T00:36:32.680Z,100.00
2022-12-27T00:39:00.287Z,100.00
2022-12-27T00:41:27.941Z,100.00
2022-12-27T00:43:54.632Z,100.00
2022-12-27T00:46:21.587Z,100.00
2022-12-27T00:48:49.071Z,100.00
2022-12-27T00:51:19.336Z,100.00
2022-12-27T00:53:46.810Z,100.00
2022-12-27T00:56:31.603Z,100.00
2022-12-27T00:59:01.131Z,100.00
2022-12-27T01:01:29.932Z,100.00
2022-12-27T01:03:58.131Z,100.00
2022-12-27T01:06:29.059Z,100.00
2022-12-27T01:08:56.747Z,100.00
2022-12-27T01:11:26.203Z,100.00
2022-12-27T01:13:57.594Z,100.00
2022-12-27T01:16:25.805Z,100.00
2022-12-27T01:18:53.066Z,100.00
2022-12-27T01:21:21.935Z,100.00
2022-12-27T01:23:49.832Z,100.00
2022-12-27T01:26:19.638Z,100.00
2022-12-27T01:28:47.636Z,100.00
2022-12-27T01:31:21.426Z,100.00
2022-12-27T01:33:48.703Z,100.00
2022-12-27T01:36:20.301Z,100.00
2022-12-27T01:38:48.801Z,100.00
2022-12-27T01:41:47.750Z,100.00
2022-12-27T01:44:39.633Z,100.00
2022-12-27T01:47:12.382Z,100.00
2022-12-27T01:49:59.809Z,100.00
2022-12-27T01:52:35.202Z,100.00
2022-12-27T01:55:10.707Z,100.00
2022-12-27T01:57:37.493Z,100.00
2022-12-27T02:00:05.167Z,100.00
2022-12-27T02:02:32.449Z,100.00
2022-12-27T02:04:59.298Z,100.00
2022-12-27T02:07:36.667Z,100.00
2022-12-27T02:10:04.111Z,100.00
2022-12-27T02:12:31.972Z,100.00
2022-12-27T02:14:58.995Z,100.00
2022-12-27T02:17:29.325Z,100.00
2022-12-27T02:20:16.006Z,100.00
2022-12-27T02:23:10.493Z,100.00
2022-12-27T02:25:59.070Z,100.00
2022-12-27T02:28:58.960Z,100.00
2022-12-27T02:31:41.002Z,100.00
2022-12-27T02:34:17.261Z,100.00
2022-12-27T02:36:46.013Z,100.00
2022-12-27T02:39:15.657Z,100.00
2022-12-27T02:42:02.998Z,100.00
2022-12-27T02:44:48.949Z,100.00
2022-12-27T02:47:38.761Z,100.00
2022-12-27T02:50:27.051Z,100.00
2022-12-27T02:53:05.290Z,100.00
2022-12-27T02:56:40.238Z,100.00
2022-12-27T03:00:02.245Z,100.00
2022-12-27T03:03:04.700Z,100.00
2022-12-27T03:06:17.492Z,100.00
2022-12-27T03:09:04.331Z,100.00
2022-12-27T03:12:02.126Z,100.00
2022-12-27T03:14:56.459Z,100.00
2022-12-27T03:17:49.077Z,100.00
2022-12-27T03:20:36.864Z,100.00
2022-12-27T03:23:22.555Z,100.00
2022-12-27T03:25:51.700Z,100.00
2022-12-27T03:28:41.330Z,100.00
2022-12-27T03:31:51.339Z,100.00
2022-12-27T03:34:31.873Z,100.00
2022-12-27T03:37:50.608Z,100.00
2022-12-27T03:41:06.459Z,100.00
2022-12-27T03:43:34.902Z,100.00
2022-12-27T03:46:34.363Z,100.00
2022-12-27T03:49:16.359Z,100.00
2022-12-27T03:52:05.837Z,100.00
2022-12-27T03:54:39.502Z,100.00
2022-12-27T03:57:09.861Z,100.00
2022-12-27T03:59:36.546Z,100.00
2022-12-27T04:02:05.396Z,100.00
2022-12-27T04:04:33.094Z,100.00
2022-12-27T04:07:00.041Z,100.00
2022-12-27T04:09:45.362Z,100.00
2022-12-27T04:12:31.167Z,100.00
2022-12-27T04:15:16.505Z,100.00
2022-12-27T04:18:04.368Z,100.00
2022-12-27T04:20:50.779Z,100.00
2022-12-27T04:23:35.989Z,100.00
2022-12-27T04:26:21.406Z,100.00
2022-12-27T04:29:06.738Z,100.00
2022-12-27T04:31:51.820Z,100.00
2022-12-27T04:34:37.162Z,100.00
2022-12-27T04:37:04.167Z,100.00
2022-12-27T04:39:30.903Z,100.00
2022-12-27T04:42:16.251Z,100.00
2022-12-27T04:45:02.855Z,100.00
2022-12-27T04:47:48.711Z,100.00
2022-12-27T04:50:45.656Z,100.00
2022-12-27T04:53:34.112Z,100.00
2022-12-27T04:56:01.125Z,100.00
2022-12-27T04:58:28.220Z,100.00
2022-12-27T05:01:16.115Z,100.00
2022-12-27T05:03:44.144Z,100.00
2022-12-27T05:06:11.595Z,100.00
2022-12-27T05:08:57.392Z,100.00
2022-12-27T05:11:42.780Z,100.00
2022-12-27T05:14:13.242Z,100.00
2022-12-27T05:16:42.460Z,100.00
2022-12-27T05:19:11.384Z,100.00
2022-12-27T05:21:40.262Z,100.00
2022-12-27T05:24:25.569Z,100.00
2022-12-27T05:26:55.990Z,100.00
2022-12-27T05:29:22.596Z,100.00
2022-12-27T05:31:49.368Z,100.00
2022-12-27T05:34:16.139Z,100.00
2022-12-27T05:36:42.775Z,100.00
2022-12-27T05:39:09.441Z,100.00
2022-12-27T05:41:36.120Z,100.00
2022-12-27T05:44:07.114Z,100.00
2022-12-27T05:46:35.216Z,100.00
2022-12-27T05:49:01.978Z,100.00
2022-12-27T05:51:28.642Z,100.00
2022-12-27T05:53:55.332Z,100.00
2022-12-27T05:56:22.150Z,100.00
2022-12-27T05:58:48.853Z,100.00
2022-12-27T06:01:17.835Z,100.00
2022-12-27T06:03:45.271Z,100.00
2022-12-27T06:06:13.119Z,100.00
2022-12-27T06:08:40.751Z,100.00
2022-12-27T06:11:15.209Z,100.00
2022-12-27T06:13:43.350Z,100.00
2022-12-27T06:16:12.433Z,100.00
2022-12-27T06:18:40.857Z,100.00
2022-12-27T06:21:10.441Z,100.00
2022-12-27T06:23:39.401Z,100.00
2022-12-27T06:26:12.339Z,100.00
2022-12-27T06:28:39.019Z,100.00
2022-12-27T06:31:05.926Z,100.00
2022-12-27T06:33:32.826Z,100.00
2022-12-27T06:35:59.515Z,100.00
2022-12-27T06:38:26.262Z,100.00
2022-12-27T06:40:52.891Z,100.00
2022-12-27T06:43:19.563Z,100.00
2022-12-27T06:45:55.847Z,100.00
2022-12-27T06:48:22.513Z,100.00
2022-12-27T06:50:49.131Z,100.00
2022-12-27T06:53:15.843Z,100.00
2022-12-27T06:55:42.476Z,100.00
2022-12-27T06:58:09.231Z,100.00
2022-12-27T07:00:36.154Z,100.00
2022-12-27T07:03:06.162Z,100.00
2022-12-27T07:05:36.458Z,100.00
2022-12-27T07:08:03.206Z,100.00
2022-12-27T07:10:29.924Z,100.00
2022-12-27T07:12:57.274Z,100.00
2022-12-27T07:15:24.624Z,100.00
2022-12-27T07:17:51.448Z,100.00
2022-12-27T07:20:18.304Z,100.00
2022-12-27T07:22:45.041Z,100.00
2022-12-27T07:25:11.765Z,100.00
2022-12-27T07:27:38.424Z,100.00
2022-12-27T07:30:06.393Z,100.00
2022-12-27T07:32:33.142Z,100.00
2022-12-27T07:34:59.880Z,100.00
2022-12-27T07:37:26.624Z,100.00
2022-12-27T07:39:53.320Z,100.00
2022-12-27T07:42:20.004Z,100.00
2022-12-27T07:44:48.368Z,100.00
2022-12-27T07:47:15.053Z,100.00
2022-12-27T07:49:41.701Z,100.00
2022-12-27T07:52:08.375Z,100.00
2022-12-27T07:54:35.224Z,100.00
2022-12-27T07:57:01.861Z,100.00
2022-12-27T07:59:29.232Z,100.00
2022-12-27T08:02:05.073Z,100.00
2022-12-27T08:04:33.973Z,100.00
2022-12-27T08:07:27.135Z,100.00
2022-12-27T08:09:53.797Z,100.00
2022-12-27T08:12:20.485Z,100.00
2022-12-27T08:14:47.114Z,100.00
2022-12-27T08:17:27.218Z,100.00
2022-12-27T08:19:55.340Z,100.00
2022-12-27T08:22:23.689Z,100.00
2022-12-27T08:24:51.182Z,100.00
2022-12-27T08:27:22.930Z,100.00
2022-12-27T08:29:49.874Z,100.00
2022-12-27T08:32:16.913Z,100.00
2022-12-27T08:34:43.586Z,100.00
2022-12-27T08:37:10.299Z,100.00
2022-12-27T08:39:36.942Z,100.00
2022-12-27T08:42:03.828Z,100.00
2022-12-27T08:44:30.523Z,100.00
2022-12-27T08:46:57.287Z,100.00
2022-12-27T08:49:24.003Z,100.00
2022-12-27T08:51:50.703Z,100.00
2022-12-27T08:54:42.699Z,100.00
2022-12-27T08:57:09.344Z,100.00
2022-12-27T08:59:36.020Z,100.00
2022-12-27T09:02:02.875Z,100.00
2022-12-27T09:04:29.608Z,100.00
2022-12-27T09:06:56.250Z,100.00
2022-12-27T09:09:22.897Z,100.00
2022-12-27T09:11:49.546Z,100.00
2022-12-27T09:14:16.277Z,100.00
2022-12-27T09:16:43.006Z,100.00
2022-12-27T09:19:10.385Z,100.00
2022-12-27T09:21:40.594Z,100.00
2022-12-27T09:24:10.249Z,100.00
2022-12-27T09:26:36.939Z,100.00
2022-12-27T09:29:03.661Z,100.00
2022-12-27T09:31:30.801Z,100.00
2022-12-27T09:33:58.144Z,100.00
2022-12-27T09:36:29.038Z,100.00
2022-12-27T09:38:57.364Z,100.00
2022-12-27T09:44:38.193Z,100.00
2022-12-27T09:47:12.821Z,99.64
2022-12-27T09:49:47.522Z,97.30
2022-12-27T09:52:41.533Z,96.82
2022-12-27T09:55:17.780Z,95.79
2022-12-27T09:57:46.916Z,93.49
2022-12-27T10:00:34.157Z,89.47
2022-12-27T10:03:05.528Z,84.80
2022-12-27T10:05:35.088Z,83.71
2022-12-27T10:08:01.765Z,84.56
2022-12-27T10:10:41.727Z,83.54
2022-12-27T10:13:20.543Z,83.06
2022-12-27T10:16:09.618Z,80.28
2022-12-27T10:19:07.753Z,82.05
2022-12-27T10:21:39.498Z,82.67
2022-12-27T10:24:20.825Z,80.62
2022-12-27T10:26:47.609Z,82.42
2022-12-27T10:29:21.831Z,84.77
2022-12-27T10:31:48.832Z,81.93
2022-12-27T10:34:17.943Z,85.19
2022-12-27T10:36:45.401Z,85.29
2022-12-27T10:39:18.825Z,85.27
2022-12-27T10:41:57.641Z,80.90
2022-12-27T10:44:24.449Z,80.00
2022-12-27T10:46:53.962Z,81.52
2022-12-27T10:49:23.219Z,80.67
2022-12-27T10:51:52.207Z,81.96
2022-12-27T10:54:23.883Z,81.57
2022-12-27T10:56:51.245Z,81.95
2022-12-27T10:59:21.576Z,79.15
2022-12-27T11:02:08.235Z,78.93
2022-12-27T11:04:35.001Z,77.51
2022-12-27T11:07:02.251Z,77.08
2022-12-27T11:09:50.758Z,79.98
2022-12-27T11:12:23.774Z,80.27
2022-12-27T11:15:15.791Z,81.42
2022-12-27T11:17:48.971Z,80.01
2022-12-27T11:20:47.919Z,82.71
2022-12-27T11:23:20.964Z,82.05
2022-12-27T11:26:08.043Z,83.15
2022-12-27T11:28:38.475Z,79.68
2022-12-27T11:31:11.880Z,78.40
2022-12-27T11:33:49.945Z,80.32
2022-12-27T11:36:26.464Z,79.49
2022-12-27T11:38:53.172Z,77.21
2022-12-27T11:41:36.377Z,77.51
2022-12-27T11:44:34.112Z,73.79
2022-12-27T11:47:06.392Z,73.98
2022-12-27T11:49:43.103Z,68.91
2022-12-27T11:52:28.264Z,68.84
2022-12-27T11:55:40.076Z,69.81
2022-12-27T11:58:18.847Z,71.44
2022-12-27T12:01:07.199Z,68.65
2022-12-27T12:03:42.547Z,72.48
2022-12-27T12:06:34.443Z,74.99
2022-12-27T12:09:04.417Z,75.82
2022-12-27T12:12:06.144Z,73.47
2022-12-27T12:14:35.689Z,76.93
2022-12-27T12:17:23.084Z,78.72
2022-12-27T12:20:14.541Z,80.16
2022-12-27T12:23:00.034Z,79.65
2022-12-27T12:25:54.830Z,77.82
2022-12-27T12:28:56.973Z,76.31
2022-12-27T12:31:20.139Z,76.77
2022-12-27T12:33:59.003Z,75.83
2022-12-27T12:36:40.896Z,76.44
2022-12-27T12:39:26.158Z,75.79
2022-12-27T12:42:05.388Z,76.24
2022-12-27T12:44:41.132Z,74.19
2022-12-27T12:47:47.282Z,74.51
2022-12-27T12:50:40.206Z,74.90
2022-12-27T12:53:32.009Z,77.46
2022-12-27T12:56:20.328Z,77.83
2022-12-27T12:59:02.376Z,78.18
2022-12-27T13:01:51.129Z,79.56
2022-12-27T13:04:36.606Z,77.77
2022-12-27T13:07:11.145Z,75.68
2022-12-27T13:09:40.498Z,77.25
2022-12-27T13:12:16.105Z,76.68
2022-12-27T13:14:55.217Z,78.43
2022-12-27T13:17:46.748Z,79.22
2022-12-27T13:20:42.190Z,76.31
2022-12-27T13:23:37.566Z,76.24
2022-12-27T13:26:45.211Z,77.74
2022-12-27T13:29:39.582Z,77.76
2022-12-27T13:32:28.255Z,77.58
2022-12-27T13:35:37.863Z,79.13
2022-12-27T13:38:41.821Z,77.49
2022-12-27T13:41:30.192Z,76.82
2022-12-27T13:44:06.480Z,79.15
2022-12-27T13:47:06.603Z,81.29
2022-12-27T13:49:51.576Z,81.75
2022-12-27T13:52:46.176Z,82.00
2022-12-27T13:55:15.922Z,82.81
2022-12-27T13:57:51.853Z,85.20
2022-12-27T14:00:22.432Z,84.90
2022-12-27T14:03:19.708Z,83.65
2022-12-27T14:06:07.828Z,84.99
2022-12-27T14:09:15.792Z,85.91
2022-12-27T14:12:06.738Z,86.23
2022-12-27T14:14:39.024Z,84.98
2022-12-27T14:17:25.862Z,86.20
2022-12-27T14:20:15.387Z,84.69
2022-12-27T14:23:21.272Z,86.08
2022-12-27T14:25:54.284Z,88.37
2022-12-27T14:28:39.158Z,88.56
2022-12-27T14:31:31.164Z,86.75
2022-12-27T14:34:16.758Z,89.24
2022-12-27T14:37:14.992Z,89.63
2022-12-27T14:40:06.588Z,89.06
2022-12-27T14:43:12.146Z,91.96
2022-12-27T14:46:03.180Z,95.29
2022-12-27T14:48:32.764Z,95.62
2022-12-27T14:51:59.288Z,96.14
2022-12-27T14:57:48.113Z,98.41
2022-12-27T15:00:17.690Z,99.53
2022-12-27T15:03:21.600Z,100.00
2022-12-27T15:06:36.565Z,100.00
2022-12-27T15:09:07.490Z,100.00
2022-12-27T15:11:54.742Z,100.00
2022-12-27T15:14:30.325Z,100.00
2022-12-27T15:17:33.761Z,100.00
2022-12-27T15:20:12.898Z,100.00
2022-12-27T15:23:01.037Z,100.00
2022-12-27T15:26:07.312Z,100.00
2022-12-27T15:28:58.747Z,100.00
2022-12-27T15:31:42.734Z,100.00
2022-12-27T15:34:12.026Z,100.00
2022-12-27T15:36:47.666Z,100.00
2022-12-27T15:39:50.222Z,100.00
2022-12-27T15:43:12.626Z,100.00
2022-12-27T15:45:45.064Z,100.00
2022-12-27T15:48:11.588Z,100.00
2022-12-27T15:50:49.045Z,100.00
2022-12-27T15:53:35.573Z,100.00
2022-12-27T15:56:41.652Z,100.00
2022-12-27T15:59:36.638Z,100.00
2022-12-27T16:02:22.548Z,100.00
2022-12-27T16:04:53.926Z,100.00
2022-12-27T16:07:43.053Z,100.00
2022-12-27T16:10:35.425Z,100.00
2022-12-27T16:13:05.050Z,100.00
2022-12-27T16:15:35.041Z,100.00
2022-12-27T16:18:03.246Z,100.00
2022-12-27T16:20:32.412Z,100.00
2022-12-27T16:23:03.468Z,100.00
2022-12-27T16:25:34.063Z,100.00
2022-12-27T16:28:16.068Z,100.00
2022-12-27T16:30:53.014Z,100.00
2022-12-27T16:33:25.660Z,100.00
2022-12-27T16:36:16.004Z,100.00
2022-12-27T16:38:46.052Z,100.00
2022-12-27T16:41:18.318Z,100.00
2022-12-27T16:44:05.195Z,100.00
2022-12-27T16:46:54.048Z,100.00
2022-12-27T16:49:23.868Z,100.00
2022-12-27T16:52:19.476Z,100.00
2022-12-27T16:55:18.431Z,100.00
2022-12-27T16:57:48.013Z,100.00
2022-12-27T17:00:39.718Z,100.00
2022-12-27T17:03:20.964Z,100.00
2022-12-27T17:09:05.283Z,100.00
2022-12-27T17:11:32.667Z,100.00
2022-12-27T17:14:10.573Z,100.00
2022-12-27T17:16:42.952Z,100.00
2022-12-27T17:19:19.069Z,100.00
2022-12-27T17:21:48.049Z,100.00
2022-12-27T17:24:20.067Z,100.00
2022-12-27T17:27:08.751Z,100.00
2022-12-27T17:30:06.933Z,100.00
2022-12-27T17:33:04.748Z,100.00
2022-12-27T17:35:52.285Z,100.00
2022-12-27T17:38:44.994Z,100.00
2022-12-27T17:41:49.400Z,100.00
2022-12-27T17:44:45.607Z,100.00
2022-12-27T17:47:40.452Z,100.00
2022-12-27T17:50:17.650Z,100.00
2022-12-27T17:53:40.127Z,100.00
2022-12-27T17:56:39.339Z,100.00
2022-12-27T17:59:15.175Z,100.00
2022-12-27T18:01:57.479Z,100.00
2022-12-27T18:04:39.176Z,100.00
2022-12-27T18:07:08.997Z,100.00
2022-12-27T18:09:49.368Z,100.00
2022-12-27T18:12:28.615Z,100.00
2022-12-27T18:15:02.976Z,100.00
2022-12-27T18:18:06.236Z,100.00
2022-12-27T18:20:40.626Z,100.00
2022-12-27T18:23:15.264Z,100.00
2022-12-27T18:25:44.921Z,100.00
2022-12-27T18:28:33.690Z,100.00
2022-12-27T18:31:21.167Z,100.00
2022-12-27T18:33:58.024Z,100.00
2022-12-27T18:36:33.821Z,100.00
2022-12-27T18:39:08.499Z,100.00
2022-12-27T18:41:42.152Z,100.00
2022-12-27T18:44:27.404Z,100.00
2022-12-27T18:46:57.152Z,100.00
2022-12-27T18:49:25.271Z,100.00
2022-12-27T18:51:53.298Z,100.00
2022-12-27T18:54:38.309Z,100.00
2022-12-27T18:57:07.232Z,100.00
2022-12-27T18:59:36.161Z,100.00
2022-12-27T19:02:43.378Z,100.00
2022-12-27T19:05:27.003Z,100.00
2022-12-27T19:07:56.719Z,100.00
2022-12-27T19:10:26.309Z,100.00
2022-12-27T19:12:54.985Z,100.00
2022-12-27T19:15:28.717Z,100.00
2022-12-27T19:18:00.435Z,100.00
2022-12-27T19:20:30.405Z,100.00
2022-12-27T19:23:05.404Z,100.00
2022-12-27T19:25:39.309Z,100.00
2022-12-27T19:28:12.085Z,100.00
2022-12-27T19:30:43.800Z,100.00
2022-12-27T19:33:32.788Z,100.00
2022-12-27T19:36:01.786Z,100.00
2022-12-27T19:38:31.519Z,100.00
2022-12-27T19:41:03.752Z,100.00
2022-12-27T19:43:34.221Z,100.00
2022-12-27T19:46:00.901Z,100.00
2022-12-27T19:48:27.700Z,100.00
2022-12-27T19:50:55.105Z,100.00
2022-12-27T19:53:28.328Z,100.00
2022-12-27T19:55:55.235Z,100.00
2022-12-27T19:58:24.364Z,100.00
2022-12-27T20:00:51.229Z,100.00
2022-12-27T20:03:18.131Z,100.00
2022-12-27T20:06:13.653Z,100.00
2022-12-27T20:08:42.747Z,100.00
2022-12-27T20:11:14.591Z,100.00
2022-12-27T20:13:41.367Z,100.00
2022-12-27T20:16:10.189Z,100.00
2022-12-27T20:18:38.824Z,100.00
2022-12-27T20:21:06.405Z,100.00
2022-12-27T20:23:33.146Z,100.00
2022-12-27T20:25:59.962Z,100.00
2022-12-27T20:28:26.631Z,100.00
2022-12-27T20:30:53.294Z,100.00
2022-12-27T20:33:20.235Z,100.00
2022-12-27T20:35:57.196Z,100.00
2022-12-27T20:38:25.205Z,100.00
2022-12-27T20:40:52.602Z,100.00
2022-12-27T20:43:19.633Z,100.00
2022-12-27T20:45:47.315Z,100.00
2022-12-27T20:48:14.212Z,100.00
2022-12-27T20:50:41.391Z,100.00
2022-12-27T20:53:08.175Z,100.00
2022-12-27T20:55:34.889Z,100.00
2022-12-27T20:58:01.669Z,100.00
2022-12-27T21:00:28.589Z,100.00
2022-12-27T21:02:55.543Z,100.00
2022-12-27T21:05:22.304Z,100.00
2022-12-27T21:07:48.991Z,100.00
2022-12-27T21:10:15.782Z,100.00
2022-12-27T21:12:42.455Z,100.00
2022-12-27T21:15:09.707Z,100.00
2022-12-27T21:17:36.467Z,100.00
2022-12-27T21:20:03.607Z,100.00
2022-12-27T21:22:30.320Z,100.00
2022-12-27T21:24:57.256Z,100.00
2022-12-27T21:27:23.896Z,100.00
2022-12-27T21:29:50.587Z,100.00
2022-12-27T21:32:18.083Z,100.00
2022-12-27T21:34:44.789Z,100.00
2022-12-27T21:37:13.456Z,100.00
2022-12-27T21:39:40.582Z,100.00
2022-12-27T21:42:07.353Z,100.00
2022-12-27T21:44:36.889Z,100.00
2022-12-27T21:47:03.739Z,100.00
2022-12-27T21:49:30.724Z,100.00
2022-12-27T21:51:57.398Z,100.00
2022-12-27T21:54:24.172Z,100.00
2022-12-27T21:56:51.029Z,100.00
2022-12-27T21:59:17.732Z,100.00
2022-12-27T22:01:51.732Z,100.00
2022-12-27T22:04:20.895Z,100.00
2022-12-27T22:06:48.268Z,100.00
2022-12-27T22:09:15.601Z,100.00
2022-12-27T22:11:42.557Z,100.00
2022-12-27T22:14:09.469Z,100.00
2022-12-27T22:16:38.829Z,100.00
2022-12-27T22:19:10.965Z,100.00
2022-12-27T22:21:39.179Z,100.00
2022-12-27T22:24:07.029Z,100.00
2022-12-27T22:26:37.369Z,100.00
2022-12-27T22:29:06.729Z,100.00
2022-12-27T22:31:35.434Z,100.00
2022-12-27T22:34:03.537Z,100.00
2022-12-27T22:36:30.730Z,100.00
2022-12-27T22:38:59.303Z,100.00
2022-12-27T22:41:28.651Z,100.00
2022-12-27T22:44:00.722Z,100.00
2022-12-27T22:46:39.387Z,100.00
2022-12-27T22:49:15.727Z,100.00
2022-12-27T22:51:42.854Z,100.00
2022-12-27T22:54:09.506Z,100.00
2022-12-27T22:56:40.135Z,100.00
2022-12-27T22:59:16.299Z,100.00
2022-12-27T23:01:45.164Z,100.00
2022-12-27T23:04:13.933Z,100.00
2022-12-27T23:06:42.081Z,100.00
2022-12-27T23:09:09.367Z,100.00
2022-12-27T23:11:40.789Z,100.00
2022-12-27T23:14:13.940Z,100.00
2022-12-27T23:16:46.593Z,100.00
2022-12-27T23:19:16.133Z,100.00
2022-12-27T23:21:43.279Z,100.00
2022-12-27T23:24:11.026Z,100.00
2022-12-27T23:26:38.452Z,100.00
2022-12-27T23:29:06.178Z,100.00
2022-12-27T23:31:33.710Z,100.00
2022-12-27T23:34:00.868Z,100.00
2022-12-27T23:36:27.691Z,100.00
2022-12-27T23:38:55.412Z,100.00
2022-12-27T23:41:24.336Z,100.00
2022-12-27T23:43:54.288Z,100.00
2022-12-27T23:46:29.963Z,100.00
2022-12-27T23:48:58.608Z,100.00
2022-12-27T23:51:26.318Z,100.00
2022-12-27T23:53:52.976Z,100.00
2022-12-27T23:56:23.500Z,100.00
2022-12-27T23:58:52.970Z,100.00
